sensor_id;sensor_type;location;lat;lon;timestamp;P1;durP1;ratioP1;P2;durP2;ratioP2
69057;SDS011;56128;37.534;-122.308;2022-09-01T00:01:17;11.65;;;7.13;;
69057;SDS011;56128;37.534;-122.308;2022-09-01T00:03:48;11.50;;;7.00;;
69057;SDS011;56128;37.534;-122.308;2022-09-01T00:06:17;9.82;;;7.45;;
69057;SDS011;56128;37.534;-122.308;2022-09-01T00:08:51;11.25;;;7.15;;
69057;SDS011;56128;37.534;-122.308;2022-09-01T00:11:19;10.55;;;7.50;;
69057;SDS011;56128;37.534;-122.308;2022-09-01T00:13:46;13.30;;;7.50;;
69057;SDS011;56128;37.534;-122.308;2022-09-01T00:16:15;12.98;;;7.97;;
69057;SDS011;56128;37.534;-122.308;2022-09-01T00:18:43;11.57;;;7.75;;
69057;SDS011;56128;37.534;-122.308;2022-09-01T00:21:14;12.63;;;7.30;;
69057;SDS011;56128;37.534;-122.308;2022-09-01T00:23:46;12.70;;;7.43;;
69057;SDS011;56128;37.534;-122.308;2022-09-01T00:26:12;11.18;;;7.88;;
69057;SDS011;56128;37.534;-122.308;2022-09-01T00:28:39;11.27;;;7.82;;
69057;SDS011;56128;37.534;-122.308;2022-09-01T00:31:06;10.30;;;7.63;;
69057;SDS011;56128;37.534;-122.308;2022-09-01T00:33:33;9.68;;;7.35;;
69057;SDS011;56128;37.534;-122.308;2022-09-01T00:36:00;12.50;;;8.05;;
69057;SDS011;56128;37.534;-122.308;2022-09-01T00:38:26;10.60;;;7.45;;
69057;SDS011;56128;37.534;-122.308;2022-09-01T00:40:53;12.52;;;7.50;;
69057;SDS011;56128;37.534;-122.308;2022-09-01T00:43:20;12.57;;;7.57;;
69057;SDS011;56128;37.534;-122.308;2022-09-01T00:45:47;10.18;;;7.22;;
69057;SDS011;56128;37.534;-122.308;2022-09-01T00:48:16;10.90;;;7.05;;
69057;SDS011;56128;37.534;-122.308;2022-09-01T00:50:45;9.95;;;7.45;;
69057;SDS011;56128;37.534;-122.308;2022-09-01T00:53:12;10.52;;;7.13;;
69057;SDS011;56128;37.534;-122.308;2022-09-01T00:55:38;10.60;;;7.32;;
69057;SDS011;56128;37.534;-122.308;2022-09-01T00:58:05;9.77;;;6.75;;
69057;SDS011;56128;37.534;-122.308;2022-09-01T01:00:33;9.38;;;6.88;;
69057;SDS011;56128;37.534;-122.308;2022-09-01T01:05:41;10.07;;;6.93;;
69057;SDS011;56128;37.534;-122.308;2022-09-01T01:08:13;9.50;;;6.63;;
69057;SDS011;56128;37.534;-122.308;2022-09-01T01:10:42;8.85;;;6.68;;
69057;SDS011;56128;37.534;-122.308;2022-09-01T01:13:10;9.63;;;6.45;;
69057;SDS011;56128;37.534;-122.308;2022-09-01T01:15:38;11.73;;;7.07;;
69057;SDS011;56128;37.534;-122.308;2022-09-01T01:18:12;9.90;;;7.20;;
69057;SDS011;56128;37.534;-122.308;2022-09-01T01:20:39;10.30;;;7.53;;
69057;SDS011;56128;37.534;-122.308;2022-09-01T01:23:35;9.52;;;7.13;;
69057;SDS011;56128;37.534;-122.308;2022-09-01T01:26:10;11.02;;;7.00;;
69057;SDS011;56128;37.534;-122.308;2022-09-01T01:28:40;10.38;;;6.38;;
69057;SDS011;56128;37.534;-122.308;2022-09-01T01:31:12;11.32;;;6.97;;
69057;SDS011;56128;37.534;-122.308;2022-09-01T01:33:44;11.05;;;7.20;;
69057;SDS011;56128;37.534;-122.308;2022-09-01T01:36:14;11.68;;;6.65;;
69057;SDS011;56128;37.534;-122.308;2022-09-01T01:38:45;10.55;;;7.05;;
69057;SDS011;56128;37.534;-122.308;2022-09-01T01:41:14;11.60;;;7.18;;
69057;SDS011;56128;37.534;-122.308;2022-09-01T01:43:44;9.48;;;6.60;;
69057;SDS011;56128;37.534;-122.308;2022-09-01T01:46:12;10.15;;;7.13;;
69057;SDS011;56128;37.534;-122.308;2022-09-01T01:48:40;9.75;;;6.70;;
69057;SDS011;56128;37.534;-122.308;2022-09-01T01:51:07;10.60;;;6.88;;
69057;SDS011;56128;37.534;-122.308;2022-09-01T01:53:34;9.85;;;6.70;;
69057;SDS011;56128;37.534;-122.308;2022-09-01T01:56:01;11.63;;;7.00;;
69057;SDS011;56128;37.534;-122.308;2022-09-01T01:58:28;11.05;;;7.00;;
69057;SDS011;56128;37.534;-122.308;2022-09-01T02:00:55;9.50;;;6.32;;
69057;SDS011;56128;37.534;-122.308;2022-09-01T02:03:23;8.90;;;6.18;;
69057;SDS011;56128;37.534;-122.308;2022-09-01T02:05:53;9.98;;;6.75;;
69057;SDS011;56128;37.534;-122.308;2022-09-01T02:08:21;10.85;;;6.60;;
69057;SDS011;56128;37.534;-122.308;2022-09-01T02:10:51;12.35;;;6.95;;
69057;SDS011;56128;37.534;-122.308;2022-09-01T02:13:19;7.07;;;5.88;;
69057;SDS011;56128;37.534;-122.308;2022-09-01T02:15:50;8.80;;;6.63;;
69057;SDS011;56128;37.534;-122.308;2022-09-01T02:18:22;10.23;;;6.90;;
69057;SDS011;56128;37.534;-122.308;2022-09-01T02:20:55;8.60;;;6.80;;
69057;SDS011;56128;37.534;-122.308;2022-09-01T02:23:23;10.55;;;6.47;;
69057;SDS011;56128;37.534;-122.308;2022-09-01T02:25:50;9.80;;;6.75;;
69057;SDS011;56128;37.534;-122.308;2022-09-01T02:28:18;11.18;;;7.05;;
69057;SDS011;56128;37.534;-122.308;2022-09-01T02:30:47;13.48;;;7.53;;
69057;SDS011;56128;37.534;-122.308;2022-09-01T02:33:16;10.02;;;7.22;;
69057;SDS011;56128;37.534;-122.308;2022-09-01T02:35:44;11.85;;;7.40;;
69057;SDS011;56128;37.534;-122.308;2022-09-01T02:38:11;9.50;;;6.97;;
69057;SDS011;56128;37.534;-122.308;2022-09-01T02:40:41;12.73;;;8.02;;
69057;SDS011;56128;37.534;-122.308;2022-09-01T02:43:11;9.82;;;7.18;;
69057;SDS011;56128;37.534;-122.308;2022-09-01T02:45:40;11.80;;;7.63;;
69057;SDS011;56128;37.534;-122.308;2022-09-01T02:48:09;11.23;;;7.68;;
69057;SDS011;56128;37.534;-122.308;2022-09-01T02:50:36;11.32;;;7.63;;
69057;SDS011;56128;37.534;-122.308;2022-09-01T02:53:03;11.35;;;7.35;;
69057;SDS011;56128;37.534;-122.308;2022-09-01T02:55:37;10.68;;;7.78;;
69057;SDS011;56128;37.534;-122.308;2022-09-01T02:58:05;13.75;;;8.38;;
69057;SDS011;56128;37.534;-122.308;2022-09-01T03:00:38;11.13;;;7.63;;
69057;SDS011;56128;37.534;-122.308;2022-09-01T03:03:06;13.15;;;7.60;;
69057;SDS011;56128;37.534;-122.308;2022-09-01T03:05:32;12.00;;;7.97;;
69057;SDS011;56128;37.534;-122.308;2022-09-01T03:08:02;12.15;;;8.30;;
69057;SDS011;56128;37.534;-122.308;2022-09-01T03:10:33;10.85;;;7.38;;
69057;SDS011;56128;37.534;-122.308;2022-09-01T03:13:05;13.02;;;7.72;;
69057;SDS011;56128;37.534;-122.308;2022-09-01T03:15:37;12.27;;;8.52;;
69057;SDS011;56128;37.534;-122.308;2022-09-01T03:18:05;13.45;;;8.18;;
69057;SDS011;56128;37.534;-122.308;2022-09-01T03:20:33;14.15;;;8.15;;
69057;SDS011;56128;37.534;-122.308;2022-09-01T03:23:04;11.48;;;7.90;;
69057;SDS011;56128;37.534;-122.308;2022-09-01T03:25:35;11.80;;;8.30;;
69057;SDS011;56128;37.534;-122.308;2022-09-01T03:28:02;12.70;;;8.30;;
69057;SDS011;56128;37.534;-122.308;2022-09-01T03:30:31;14.15;;;8.50;;
69057;SDS011;56128;37.534;-122.308;2022-09-01T03:32:59;16.63;;;8.30;;
69057;SDS011;56128;37.534;-122.308;2022-09-01T03:35:26;12.68;;;8.10;;
69057;SDS011;56128;37.534;-122.308;2022-09-01T03:37:54;15.27;;;8.48;;
69057;SDS011;56128;37.534;-122.308;2022-09-01T03:40:26;13.32;;;8.38;;
69057;SDS011;56128;37.534;-122.308;2022-09-01T03:45:26;14.65;;;8.25;;
69057;SDS011;56128;37.534;-122.308;2022-09-01T03:47:53;14.57;;;8.52;;
69057;SDS011;56128;37.534;-122.308;2022-09-01T03:50:21;12.48;;;7.97;;
69057;SDS011;56128;37.534;-122.308;2022-09-01T03:52:50;13.93;;;8.77;;
69057;SDS011;56128;37.534;-122.308;2022-09-01T03:55:19;14.80;;;8.52;;
69057;SDS011;56128;37.534;-122.308;2022-09-01T03:57:49;14.13;;;8.15;;
69057;SDS011;56128;37.534;-122.308;2022-09-01T04:00:17;13.35;;;8.65;;
69057;SDS011;56128;37.534;-122.308;2022-09-01T04:02:48;15.20;;;8.45;;
69057;SDS011;56128;37.534;-122.308;2022-09-01T04:05:18;15.55;;;8.82;;
69057;SDS011;56128;37.534;-122.308;2022-09-01T04:07:47;15.48;;;9.23;;
69057;SDS011;56128;37.534;-122.308;2022-09-01T04:10:14;11.10;;;8.10;;
69057;SDS011;56128;37.534;-122.308;2022-09-01T04:12:43;17.45;;;8.65;;
69057;SDS011;56128;37.534;-122.308;2022-09-01T04:15:11;13.93;;;8.13;;
69057;SDS011;56128;37.534;-122.308;2022-09-01T04:17:39;10.60;;;8.10;;
69057;SDS011;56128;37.534;-122.308;2022-09-01T04:20:23;11.05;;;7.18;;
69057;SDS011;56128;37.534;-122.308;2022-09-01T04:22:49;11.93;;;7.13;;
69057;SDS011;56128;37.534;-122.308;2022-09-01T04:25:17;12.23;;;7.55;;
69057;SDS011;56128;37.534;-122.308;2022-09-01T04:27:51;12.20;;;7.57;;
69057;SDS011;56128;37.534;-122.308;2022-09-01T04:30:21;11.68;;;7.05;;
69057;SDS011;56128;37.534;-122.308;2022-09-01T04:32:51;12.75;;;7.88;;
69057;SDS011;56128;37.534;-122.308;2022-09-01T04:35:20;12.45;;;7.95;;
69057;SDS011;56128;37.534;-122.308;2022-09-01T04:37:57;11.98;;;7.72;;
69057;SDS011;56128;37.534;-122.308;2022-09-01T04:40:24;11.50;;;8.75;;
69057;SDS011;56128;37.534;-122.308;2022-09-01T04:42:51;14.65;;;8.45;;
69057;SDS011;56128;37.534;-122.308;2022-09-01T04:45:17;16.58;;;9.60;;
69057;SDS011;56128;37.534;-122.308;2022-09-01T04:47:46;15.77;;;8.63;;
69057;SDS011;56128;37.534;-122.308;2022-09-01T04:50:13;14.32;;;9.20;;
69057;SDS011;56128;37.534;-122.308;2022-09-01T04:52:42;13.15;;;8.95;;
69057;SDS011;56128;37.534;-122.308;2022-09-01T04:55:10;14.43;;;8.68;;
69057;SDS011;56128;37.534;-122.308;2022-09-01T04:57:46;16.02;;;9.70;;
69057;SDS011;56128;37.534;-122.308;2022-09-01T05:00:18;13.23;;;9.27;;
69057;SDS011;56128;37.534;-122.308;2022-09-01T05:02:50;13.63;;;8.40;;
69057;SDS011;56128;37.534;-122.308;2022-09-01T05:05:19;16.88;;;8.35;;
69057;SDS011;56128;37.534;-122.308;2022-09-01T05:07:46;14.77;;;8.68;;
69057;SDS011;56128;37.534;-122.308;2022-09-01T05:10:16;14.93;;;8.88;;
69057;SDS011;56128;37.534;-122.308;2022-09-01T05:12:44;15.48;;;9.40;;
69057;SDS011;56128;37.534;-122.308;2022-09-01T05:15:11;15.18;;;8.75;;
69057;SDS011;56128;37.534;-122.308;2022-09-01T05:17:38;15.52;;;9.45;;
69057;SDS011;56128;37.534;-122.308;2022-09-01T05:20:05;13.27;;;8.85;;
69057;SDS011;56128;37.534;-122.308;2022-09-01T05:22:33;14.48;;;8.80;;
69057;SDS011;56128;37.534;-122.308;2022-09-01T05:25:00;15.63;;;9.20;;
69057;SDS011;56128;37.534;-122.308;2022-09-01T05:27:38;13.90;;;9.05;;
69057;SDS011;56128;37.534;-122.308;2022-09-01T05:30:15;15.98;;;8.73;;
69057;SDS011;56128;37.534;-122.308;2022-09-01T05:32:43;12.75;;;8.80;;
69057;SDS011;56128;37.534;-122.308;2022-09-01T05:35:11;13.98;;;9.23;;
69057;SDS011;56128;37.534;-122.308;2022-09-01T05:37:38;14.00;;;9.25;;
69057;SDS011;56128;37.534;-122.308;2022-09-01T05:40:05;16.02;;;9.32;;
69057;SDS011;56128;37.534;-122.308;2022-09-01T05:42:34;12.68;;;7.93;;
69057;SDS011;56128;37.534;-122.308;2022-09-01T05:45:04;13.88;;;8.60;;
69057;SDS011;56128;37.534;-122.308;2022-09-01T05:47:32;11.63;;;7.75;;
69057;SDS011;56128;37.534;-122.308;2022-09-01T05:50:01;13.02;;;8.68;;
69057;SDS011;56128;37.534;-122.308;2022-09-01T05:52:31;15.40;;;8.63;;
69057;SDS011;56128;37.534;-122.308;2022-09-01T05:54:58;15.85;;;8.75;;
69057;SDS011;56128;37.534;-122.308;2022-09-01T05:57:25;13.02;;;8.98;;
69057;SDS011;56128;37.534;-122.308;2022-09-01T05:59:51;14.88;;;8.63;;
69057;SDS011;56128;37.534;-122.308;2022-09-01T06:02:19;16.90;;;8.80;;
69057;SDS011;56128;37.534;-122.308;2022-09-01T06:04:46;13.05;;;8.38;;
69057;SDS011;56128;37.534;-122.308;2022-09-01T06:07:14;13.73;;;8.35;;
69057;SDS011;56128;37.534;-122.308;2022-09-01T06:09:45;14.98;;;8.40;;
69057;SDS011;56128;37.534;-122.308;2022-09-01T06:12:13;13.13;;;8.55;;
69057;SDS011;56128;37.534;-122.308;2022-09-01T06:14:48;13.35;;;7.95;;
69057;SDS011;56128;37.534;-122.308;2022-09-01T06:17:18;13.77;;;8.32;;
69057;SDS011;56128;37.534;-122.308;2022-09-01T06:19:53;15.68;;;8.35;;
69057;SDS011;56128;37.534;-122.308;2022-09-01T06:22:40;19.67;;;9.15;;
69057;SDS011;56128;37.534;-122.308;2022-09-01T06:25:08;14.70;;;9.18;;
69057;SDS011;56128;37.534;-122.308;2022-09-01T06:27:34;12.90;;;8.48;;
69057;SDS011;56128;37.534;-122.308;2022-09-01T06:30:09;17.17;;;9.05;;
69057;SDS011;56128;37.534;-122.308;2022-09-01T06:32:42;17.38;;;9.05;;
69057;SDS011;56128;37.534;-122.308;2022-09-01T06:35:09;12.65;;;8.57;;
69057;SDS011;56128;37.534;-122.308;2022-09-01T06:37:39;14.80;;;8.93;;
69057;SDS011;56128;37.534;-122.308;2022-09-01T06:40:07;13.68;;;8.93;;
69057;SDS011;56128;37.534;-122.308;2022-09-01T06:42:44;12.25;;;7.93;;
69057;SDS011;56128;37.534;-122.308;2022-09-01T06:45:15;14.63;;;8.40;;
69057;SDS011;56128;37.534;-122.308;2022-09-01T06:47:43;11.95;;;8.35;;
69057;SDS011;56128;37.534;-122.308;2022-09-01T06:50:12;15.80;;;8.63;;
69057;SDS011;56128;37.534;-122.308;2022-09-01T06:52:42;11.68;;;8.18;;
69057;SDS011;56128;37.534;-122.308;2022-09-01T06:55:09;13.88;;;8.13;;
69057;SDS011;56128;37.534;-122.308;2022-09-01T06:57:37;14.65;;;8.43;;
69057;SDS011;56128;37.534;-122.308;2022-09-01T07:00:05;15.60;;;8.55;;
69057;SDS011;56128;37.534;-122.308;2022-09-01T07:02:45;16.00;;;8.75;;
69057;SDS011;56128;37.534;-122.308;2022-09-01T07:05:17;13.52;;;8.70;;
69057;SDS011;56128;37.534;-122.308;2022-09-01T07:07:47;13.52;;;8.48;;
69057;SDS011;56128;37.534;-122.308;2022-09-01T07:10:22;14.20;;;8.68;;
69057;SDS011;56128;37.534;-122.308;2022-09-01T07:12:54;15.43;;;8.43;;
69057;SDS011;56128;37.534;-122.308;2022-09-01T07:15:22;14.90;;;9.00;;
69057;SDS011;56128;37.534;-122.308;2022-09-01T07:17:49;14.10;;;8.25;;
69057;SDS011;56128;37.534;-122.308;2022-09-01T07:20:18;13.07;;;8.52;;
69057;SDS011;56128;37.534;-122.308;2022-09-01T07:22:46;13.20;;;8.52;;
69057;SDS011;56128;37.534;-122.308;2022-09-01T07:25:13;14.00;;;8.57;;
69057;SDS011;56128;37.534;-122.308;2022-09-01T07:27:42;13.23;;;8.63;;
69057;SDS011;56128;37.534;-122.308;2022-09-01T07:30:16;16.55;;;9.45;;
69057;SDS011;56128;37.534;-122.308;2022-09-01T07:32:44;13.55;;;8.63;;
69057;SDS011;56128;37.534;-122.308;2022-09-01T07:35:12;14.65;;;8.50;;
69057;SDS011;56128;37.534;-122.308;2022-09-01T07:37:40;13.77;;;8.75;;
69057;SDS011;56128;37.534;-122.308;2022-09-01T07:40:08;13.82;;;8.93;;
69057;SDS011;56128;37.534;-122.308;2022-09-01T07:42:36;12.85;;;8.38;;
69057;SDS011;56128;37.534;-122.308;2022-09-01T07:45:05;18.20;;;9.57;;
69057;SDS011;56128;37.534;-122.308;2022-09-01T07:47:35;12.93;;;8.88;;
69057;SDS011;56128;37.534;-122.308;2022-09-01T07:50:06;16.90;;;9.30;;
69057;SDS011;56128;37.534;-122.308;2022-09-01T07:52:35;13.23;;;8.85;;
69057;SDS011;56128;37.534;-122.308;2022-09-01T07:55:07;15.68;;;8.52;;
69057;SDS011;56128;37.534;-122.308;2022-09-01T07:57:38;14.85;;;8.55;;
69057;SDS011;56128;37.534;-122.308;2022-09-01T08:00:10;16.90;;;8.93;;
69057;SDS011;56128;37.534;-122.308;2022-09-01T08:02:39;16.20;;;8.65;;
69057;SDS011;56128;37.534;-122.308;2022-09-01T08:05:09;17.20;;;9.75;;
69057;SDS011;56128;37.534;-122.308;2022-09-01T08:07:46;15.23;;;9.20;;
69057;SDS011;56128;37.534;-122.308;2022-09-01T08:10:13;14.93;;;8.93;;
69057;SDS011;56128;37.534;-122.308;2022-09-01T08:12:40;14.82;;;9.13;;
69057;SDS011;56128;37.534;-122.308;2022-09-01T08:15:07;15.48;;;9.05;;
69057;SDS011;56128;37.534;-122.308;2022-09-01T08:17:36;16.80;;;9.40;;
69057;SDS011;56128;37.534;-122.308;2022-09-01T08:20:03;16.08;;;9.35;;
69057;SDS011;56128;37.534;-122.308;2022-09-01T08:22:33;15.05;;;8.60;;
69057;SDS011;56128;37.534;-122.308;2022-09-01T08:25:05;15.20;;;9.02;;
69057;SDS011;56128;37.534;-122.308;2022-09-01T08:27:34;14.68;;;9.77;;
69057;SDS011;56128;37.534;-122.308;2022-09-01T08:30:04;16.30;;;9.50;;
69057;SDS011;56128;37.534;-122.308;2022-09-01T08:32:32;14.27;;;8.95;;
69057;SDS011;56128;37.534;-122.308;2022-09-01T08:35:00;17.48;;;9.48;;
69057;SDS011;56128;37.534;-122.308;2022-09-01T08:37:29;14.25;;;9.55;;
69057;SDS011;56128;37.534;-122.308;2022-09-01T08:39:55;13.02;;;8.85;;
69057;SDS011;56128;37.534;-122.308;2022-09-01T08:45:31;14.27;;;8.50;;
69057;SDS011;56128;37.534;-122.308;2022-09-01T08:48:30;17.33;;;8.63;;
69057;SDS011;56128;37.534;-122.308;2022-09-01T08:53:53;14.98;;;8.82;;
69057;SDS011;56128;37.534;-122.308;2022-09-01T08:56:26;19.23;;;9.70;;
69057;SDS011;56128;37.534;-122.308;2022-09-01T08:58:52;17.70;;;9.25;;
69057;SDS011;56128;37.534;-122.308;2022-09-01T09:01:32;14.30;;;9.07;;
69057;SDS011;56128;37.534;-122.308;2022-09-01T09:04:15;15.93;;;8.90;;
69057;SDS011;56128;37.534;-122.308;2022-09-01T09:09:34;12.82;;;8.45;;
69057;SDS011;56128;37.534;-122.308;2022-09-01T09:12:19;16.98;;;9.27;;
69057;SDS011;56128;37.534;-122.308;2022-09-01T09:17:48;15.65;;;8.90;;
69057;SDS011;56128;37.534;-122.308;2022-09-01T09:20:24;15.32;;;8.82;;
69057;SDS011;56128;37.534;-122.308;2022-09-01T09:22:52;14.32;;;9.18;;
69057;SDS011;56128;37.534;-122.308;2022-09-01T09:25:19;15.70;;;8.68;;
69057;SDS011;56128;37.534;-122.308;2022-09-01T09:27:49;13.13;;;9.18;;
69057;SDS011;56128;37.534;-122.308;2022-09-01T09:32:54;16.20;;;8.63;;
69057;SDS011;56128;37.534;-122.308;2022-09-01T09:35:30;14.98;;;8.65;;
69057;SDS011;56128;37.534;-122.308;2022-09-01T09:40:56;16.65;;;9.68;;
69057;SDS011;56128;37.534;-122.308;2022-09-01T09:43:27;15.50;;;8.88;;
69057;SDS011;56128;37.534;-122.308;2022-09-01T09:48:46;20.35;;;9.57;;
69057;SDS011;56128;37.534;-122.308;2022-09-01T09:51:19;15.68;;;8.63;;
69057;SDS011;56128;37.534;-122.308;2022-09-01T09:53:47;13.90;;;9.05;;
69057;SDS011;56128;37.534;-122.308;2022-09-01T10:01:26;15.48;;;9.18;;
69057;SDS011;56128;37.534;-122.308;2022-09-01T10:03:57;17.52;;;9.75;;
69057;SDS011;56128;37.534;-122.308;2022-09-01T10:09:14;18.73;;;9.23;;
69057;SDS011;56128;37.534;-122.308;2022-09-01T10:11:54;15.93;;;9.80;;
69057;SDS011;56128;37.534;-122.308;2022-09-01T10:14:29;14.98;;;8.75;;
69057;SDS011;56128;37.534;-122.308;2022-09-01T10:17:05;16.17;;;9.23;;
69057;SDS011;56128;37.534;-122.308;2022-09-01T10:19:35;19.67;;;9.93;;
69057;SDS011;56128;37.534;-122.308;2022-09-01T10:22:06;16.85;;;9.63;;
69057;SDS011;56128;37.534;-122.308;2022-09-01T10:24:35;16.85;;;9.70;;
69057;SDS011;56128;37.534;-122.308;2022-09-01T10:27:15;16.80;;;8.73;;
69057;SDS011;56128;37.534;-122.308;2022-09-01T10:29:54;16.13;;;10.02;;
69057;SDS011;56128;37.534;-122.308;2022-09-01T10:32:44;19.02;;;10.27;;
69057;SDS011;56128;37.534;-122.308;2022-09-01T10:35:15;19.60;;;9.00;;
69057;SDS011;56128;37.534;-122.308;2022-09-01T10:37:48;16.25;;;9.38;;
69057;SDS011;56128;37.534;-122.308;2022-09-01T10:45:51;18.42;;;9.63;;
69057;SDS011;56128;37.534;-122.308;2022-09-01T10:50:51;18.02;;;9.43;;
69057;SDS011;56128;37.534;-122.308;2022-09-01T10:59:01;17.20;;;9.52;;
69057;SDS011;56128;37.534;-122.308;2022-09-01T11:04:07;17.83;;;9.05;;
69057;SDS011;56128;37.534;-122.308;2022-09-01T11:09:20;21.20;;;9.88;;
69057;SDS011;56128;37.534;-122.308;2022-09-01T11:14:46;18.30;;;9.63;;
69057;SDS011;56128;37.534;-122.308;2022-09-01T11:17:23;17.77;;;10.00;;
69057;SDS011;56128;37.534;-122.308;2022-09-01T11:22:35;19.92;;;10.23;;
69057;SDS011;56128;37.534;-122.308;2022-09-01T11:30:42;20.35;;;10.18;;
69057;SDS011;56128;37.534;-122.308;2022-09-01T11:33:33;18.17;;;10.40;;
69057;SDS011;56128;37.534;-122.308;2022-09-01T11:36:24;16.02;;;9.80;;
69057;SDS011;56128;37.534;-122.308;2022-09-01T11:41:53;22.45;;;10.15;;
69057;SDS011;56128;37.534;-122.308;2022-09-01T11:44:29;25.63;;;10.95;;
69057;SDS011;56128;37.534;-122.308;2022-09-01T11:46:58;20.92;;;11.20;;
69057;SDS011;56128;37.534;-122.308;2022-09-01T11:49:38;20.50;;;10.65;;
69057;SDS011;56128;37.534;-122.308;2022-09-01T11:54:41;19.15;;;9.68;;
69057;SDS011;56128;37.534;-122.308;2022-09-01T11:57:18;21.20;;;10.90;;
69057;SDS011;56128;37.534;-122.308;2022-09-01T12:00:00;17.25;;;10.18;;
69057;SDS011;56128;37.534;-122.308;2022-09-01T12:02:31;17.90;;;10.48;;
69057;SDS011;56128;37.534;-122.308;2022-09-01T12:05:00;18.83;;;11.43;;
69057;SDS011;56128;37.534;-122.308;2022-09-01T12:10:49;24.77;;;11.80;;
69057;SDS011;56128;37.534;-122.308;2022-09-01T12:13:00;19.88;;;10.68;;
69057;SDS011;56128;37.534;-122.308;2022-09-01T12:15:31;19.58;;;10.35;;
69057;SDS011;56128;37.534;-122.308;2022-09-01T12:18:20;20.13;;;11.00;;
69057;SDS011;56128;37.534;-122.308;2022-09-01T12:20:50;18.02;;;10.75;;
69057;SDS011;56128;37.534;-122.308;2022-09-01T12:25:54;22.27;;;11.52;;
69057;SDS011;56128;37.534;-122.308;2022-09-01T12:28:25;23.63;;;11.50;;
69057;SDS011;56128;37.534;-122.308;2022-09-01T12:30:58;20.52;;;11.02;;
69057;SDS011;56128;37.534;-122.308;2022-09-01T12:33:26;23.92;;;11.80;;
69057;SDS011;56128;37.534;-122.308;2022-09-01T12:36:12;27.42;;;11.93;;
69057;SDS011;56128;37.534;-122.308;2022-09-01T12:38:44;21.38;;;11.75;;
69057;SDS011;56128;37.534;-122.308;2022-09-01T12:41:24;20.65;;;11.18;;
69057;SDS011;56128;37.534;-122.308;2022-09-01T12:43:56;23.60;;;11.75;;
69057;SDS011;56128;37.534;-122.308;2022-09-01T12:46:43;24.55;;;11.95;;
69057;SDS011;56128;37.534;-122.308;2022-09-01T12:49:21;27.00;;;11.93;;
69057;SDS011;56128;37.534;-122.308;2022-09-01T12:55:14;28.40;;;11.15;;
69057;SDS011;56128;37.534;-122.308;2022-09-01T12:57:50;23.08;;;11.57;;
69057;SDS011;56128;37.534;-122.308;2022-09-01T13:00:23;22.70;;;11.88;;
69057;SDS011;56128;37.534;-122.308;2022-09-01T13:03:04;24.90;;;11.75;;
69057;SDS011;56128;37.534;-122.308;2022-09-01T13:05:40;28.23;;;12.00;;
69057;SDS011;56128;37.534;-122.308;2022-09-01T13:08:08;24.50;;;12.32;;
69057;SDS011;56128;37.534;-122.308;2022-09-01T13:10:40;23.35;;;10.88;;
69057;SDS011;56128;37.534;-122.308;2022-09-01T13:13:09;22.13;;;11.57;;
69057;SDS011;56128;37.534;-122.308;2022-09-01T13:15:38;27.23;;;12.88;;
69057;SDS011;56128;37.534;-122.308;2022-09-01T13:18:07;23.60;;;12.25;;
69057;SDS011;56128;37.534;-122.308;2022-09-01T13:20:33;22.25;;;11.57;;
69057;SDS011;56128;37.534;-122.308;2022-09-01T13:23:00;21.58;;;11.85;;
69057;SDS011;56128;37.534;-122.308;2022-09-01T13:25:26;27.13;;;11.88;;
69057;SDS011;56128;37.534;-122.308;2022-09-01T13:27:53;27.27;;;12.80;;
69057;SDS011;56128;37.534;-122.308;2022-09-01T13:30:21;23.10;;;11.82;;
69057;SDS011;56128;37.534;-122.308;2022-09-01T13:32:49;27.13;;;11.60;;
69057;SDS011;56128;37.534;-122.308;2022-09-01T13:35:17;25.02;;;11.70;;
69057;SDS011;56128;37.534;-122.308;2022-09-01T13:37:46;29.33;;;11.95;;
69057;SDS011;56128;37.534;-122.308;2022-09-01T13:40:14;24.60;;;12.27;;
69057;SDS011;56128;37.534;-122.308;2022-09-01T13:42:45;26.95;;;11.77;;
69057;SDS011;56128;37.534;-122.308;2022-09-01T13:45:14;26.25;;;12.25;;
69057;SDS011;56128;37.534;-122.308;2022-09-01T13:47:46;25.00;;;12.00;;
69057;SDS011;56128;37.534;-122.308;2022-09-01T13:50:14;23.77;;;11.70;;
69057;SDS011;56128;37.534;-122.308;2022-09-01T13:52:46;22.25;;;11.55;;
69057;SDS011;56128;37.534;-122.308;2022-09-01T13:55:16;22.50;;;11.75;;
69057;SDS011;56128;37.534;-122.308;2022-09-01T13:57:44;28.33;;;12.65;;
69057;SDS011;56128;37.534;-122.308;2022-09-01T14:00:11;24.92;;;12.25;;
69057;SDS011;56128;37.534;-122.308;2022-09-01T14:02:51;31.55;;;12.98;;
69057;SDS011;56128;37.534;-122.308;2022-09-01T14:05:20;27.00;;;11.30;;
69057;SDS011;56128;37.534;-122.308;2022-09-01T14:07:48;25.33;;;12.35;;
69057;SDS011;56128;37.534;-122.308;2022-09-01T14:10:15;26.00;;;12.63;;
69057;SDS011;56128;37.534;-122.308;2022-09-01T14:12:42;23.42;;;12.18;;
69057;SDS011;56128;37.534;-122.308;2022-09-01T14:15:10;26.20;;;12.35;;
69057;SDS011;56128;37.534;-122.308;2022-09-01T14:17:37;25.58;;;13.15;;
69057;SDS011;56128;37.534;-122.308;2022-09-01T14:20:09;27.63;;;13.15;;
69057;SDS011;56128;37.534;-122.308;2022-09-01T14:25:05;26.25;;;12.52;;
69057;SDS011;56128;37.534;-122.308;2022-09-01T14:27:33;28.95;;;14.52;;
69057;SDS011;56128;37.534;-122.308;2022-09-01T14:29:59;34.05;;;14.55;;
69057;SDS011;56128;37.534;-122.308;2022-09-01T14:32:25;30.17;;;13.88;;
69057;SDS011;56128;37.534;-122.308;2022-09-01T14:34:52;31.67;;;14.30;;
69057;SDS011;56128;37.534;-122.308;2022-09-01T14:37:19;31.85;;;15.20;;
69057;SDS011;56128;37.534;-122.308;2022-09-01T14:39:49;34.97;;;16.27;;
69057;SDS011;56128;37.534;-122.308;2022-09-01T14:42:16;34.13;;;16.67;;
69057;SDS011;56128;37.534;-122.308;2022-09-01T14:44:44;31.25;;;15.32;;
69057;SDS011;56128;37.534;-122.308;2022-09-01T14:47:11;33.80;;;15.50;;
69057;SDS011;56128;37.534;-122.308;2022-09-01T14:49:39;34.13;;;16.05;;
69057;SDS011;56128;37.534;-122.308;2022-09-01T14:52:06;35.15;;;16.48;;
69057;SDS011;56128;37.534;-122.308;2022-09-01T14:54:33;35.67;;;16.77;;
69057;SDS011;56128;37.534;-122.308;2022-09-01T14:57:00;31.52;;;15.98;;
69057;SDS011;56128;37.534;-122.308;2022-09-01T14:59:27;29.95;;;15.10;;
69057;SDS011;56128;37.534;-122.308;2022-09-01T15:01:53;26.90;;;15.23;;
69057;SDS011;56128;37.534;-122.308;2022-09-01T15:04:19;26.15;;;14.77;;
69057;SDS011;56128;37.534;-122.308;2022-09-01T15:06:45;23.25;;;14.05;;
69057;SDS011;56128;37.534;-122.308;2022-09-01T15:09:12;23.10;;;13.63;;
69057;SDS011;56128;37.534;-122.308;2022-09-01T15:11:39;27.35;;;14.75;;
69057;SDS011;56128;37.534;-122.308;2022-09-01T15:14:06;23.77;;;13.43;;
69057;SDS011;56128;37.534;-122.308;2022-09-01T15:16:34;20.55;;;12.18;;
69057;SDS011;56128;37.534;-122.308;2022-09-01T15:19:05;15.38;;;10.18;;
69057;SDS011;56128;37.534;-122.308;2022-09-01T15:21:34;16.08;;;8.95;;
69057;SDS011;56128;37.534;-122.308;2022-09-01T15:24:01;14.07;;;8.48;;
69057;SDS011;56128;37.534;-122.308;2022-09-01T15:26:28;14.70;;;8.32;;
69057;SDS011;56128;37.534;-122.308;2022-09-01T15:28:55;13.70;;;8.00;;
69057;SDS011;56128;37.534;-122.308;2022-09-01T15:31:22;12.25;;;8.15;;